createdAt,value
2023-03-26T00:02:06.341Z,85.24
2023-03-26T00:04:34.750Z,85.42
2023-03-26T00:07:03.141Z,85.89
2023-03-26T00:09:33.096Z,86.26
2023-03-26T00:12:01.480Z,86.42
2023-03-26T00:14:30.399Z,86.82
2023-03-26T00:16:58.677Z,86.81
2023-03-26T00:19:27.834Z,86.67
2023-03-26T00:21:57.772Z,86.55
2023-03-26T00:24:29.892Z,86.60
2023-03-26T00:26:59.765Z,86.69
2023-03-26T00:29:28.812Z,87.04
2023-03-26T00:31:57.428Z,86.90
2023-03-26T00:34:26.665Z,86.78
2023-03-26T00:36:55.058Z,87.10
2023-03-26T00:39:24.543Z,86.74
2023-03-26T00:41:54.506Z,86.87
2023-03-26T00:44:24.736Z,86.95
2023-03-26T00:46:53.379Z,86.97
2023-03-26T00:49:21.614Z,86.62
2023-03-26T00:51:49.956Z,86.73
2023-03-26T00:54:18.208Z,86.41
2023-03-26T00:56:46.770Z,86.39
2023-03-26T00:59:15.678Z,86.47
2023-03-26T01:01:45.464Z,86.88
2023-03-26T01:04:31.027Z,87.07
2023-03-26T01:07:05.075Z,87.25
2023-03-26T01:09:37.061Z,87.22
2023-03-26T01:12:10.780Z,87.50
2023-03-26T01:14:39.895Z,87.31
2023-03-26T01:17:12.487Z,87.58
2023-03-26T01:19:49.786Z,87.51
2023-03-26T01:22:21.388Z,88.12
2023-03-26T01:24:56.232Z,88.04
2023-03-26T01:27:36.297Z,88.08
2023-03-26T01:30:15.141Z,88.35
2023-03-26T01:32:55.620Z,88.49
2023-03-26T01:35:35.931Z,89.07
2023-03-26T01:38:15.078Z,89.55
2023-03-26T01:40:50.437Z,90.00
2023-03-26T01:43:28.557Z,90.04
2023-03-26T01:45:59.840Z,89.91
2023-03-26T01:48:38.294Z,90.05
2023-03-26T01:51:08.493Z,90.17
2023-03-26T01:53:43.245Z,90.08
2023-03-26T01:56:22.701Z,90.00
2023-03-26T01:59:10.362Z,89.51
2023-03-26T02:01:46.189Z,89.47
2023-03-26T02:04:24.873Z,89.38
2023-03-26T02:07:02.086Z,89.67
2023-03-26T02:09:35.836Z,90.37
2023-03-26T02:12:07.682Z,90.98
2023-03-26T02:14:37.051Z,91.43
2023-03-26T02:17:06.113Z,91.65
2023-03-26T02:19:34.566Z,91.30
2023-03-26T02:22:03.029Z,91.76
2023-03-26T02:24:33.491Z,92.12
2023-03-26T02:27:02.412Z,92.41
2023-03-26T02:29:32.317Z,92.71
2023-03-26T02:32:02.307Z,92.85
2023-03-26T02:34:30.787Z,92.90
2023-03-26T02:36:59.189Z,92.62
2023-03-26T02:39:28.397Z,92.08
2023-03-26T02:42:00.888Z,91.85
2023-03-26T02:44:32.115Z,91.37
2023-03-26T02:47:00.646Z,91.11
2023-03-26T02:49:47.952Z,90.89
2023-03-26T02:52:24.479Z,90.85
2023-03-26T02:54:54.654Z,90.64
2023-03-26T02:57:25.855Z,90.52
2023-03-26T03:00:13.298Z,90.26
2023-03-26T03:02:48.127Z,90.30
2023-03-26T03:05:32.399Z,90.63
2023-03-26T03:08:23.637Z,90.52
2023-03-26T03:11:15.648Z,90.24
2023-03-26T03:13:47.135Z,90.11
2023-03-26T03:16:23.290Z,89.97
2023-03-26T03:18:57.469Z,89.74
2023-03-26T03:21:30.875Z,89.99
2023-03-26T03:23:59.952Z,89.83
2023-03-26T03:26:31.139Z,89.64
2023-03-26T03:29:05.744Z,89.88
2023-03-26T03:31:35.956Z,89.72
2023-03-26T03:34:06.863Z,89.64
2023-03-26T03:36:39.328Z,89.34
2023-03-26T03:39:16.786Z,88.78
2023-03-26T03:41:45.506Z,88.65
2023-03-26T03:44:16.769Z,88.43
2023-03-26T03:46:49.218Z,88.80
2023-03-26T03:49:17.852Z,89.50
2023-03-26T03:51:46.430Z,88.99
2023-03-26T03:54:24.270Z,88.96
2023-03-26T03:57:05.556Z,88.85
2023-03-26T03:59:51.587Z,88.79
2023-03-26T04:02:26.559Z,88.52
2023-03-26T04:04:59.932Z,88.44
2023-03-26T04:07:32.193Z,88.42
2023-03-26T04:10:09.364Z,88.56
2023-03-26T04:13:09.828Z,88.71
2023-03-26T04:16:11.560Z,88.47
2023-03-26T04:18:41.655Z,88.64
2023-03-26T04:21:16.368Z,89.34
2023-03-26T04:23:46.589Z,89.84
2023-03-26T04:26:25.568Z,90.07
2023-03-26T04:29:11.878Z,90.54
2023-03-26T04:31:40.439Z,90.71
2023-03-26T04:34:24.052Z,90.25
2023-03-26T04:37:05.206Z,90.35
2023-03-26T04:39:39.270Z,90.49
2023-03-26T04:42:28.759Z,90.38
2023-03-26T04:45:09.206Z,90.40
2023-03-26T04:47:39.127Z,92.04
2023-03-26T04:50:12.806Z,94.13
2023-03-26T04:52:43.957Z,94.72
2023-03-26T04:55:39.505Z,94.38
2023-03-26T04:58:17.012Z,94.28
2023-03-26T05:00:55.360Z,93.59
2023-03-26T05:03:23.961Z,93.79
2023-03-26T05:05:53.974Z,93.61
2023-03-26T05:08:22.532Z,93.51
2023-03-26T05:10:51.015Z,93.37
2023-03-26T05:13:29.787Z,94.01
2023-03-26T05:16:01.666Z,93.69
2023-03-26T05:18:59.426Z,93.75
2023-03-26T05:21:34.901Z,93.51
2023-03-26T05:24:03.764Z,93.21
2023-03-26T05:26:32.380Z,93.01
2023-03-26T05:29:02.944Z,92.93
2023-03-26T05:31:35.453Z,94.13
2023-03-26T05:34:06.765Z,94.74
2023-03-26T05:36:36.784Z,94.62
2023-03-26T05:39:14.250Z,95.35
2023-03-26T05:42:17.824Z,94.93
2023-03-26T05:45:22.284Z,94.76
2023-03-26T05:47:51.281Z,94.61
2023-03-26T05:50:20.505Z,94.50
2023-03-26T05:52:51.809Z,94.89
2023-03-26T05:55:57.799Z,96.51
2023-03-26T05:58:52.720Z,99.05
2023-03-26T06:01:56.189Z,100.00
2023-03-26T06:04:45.825Z,100.00
2023-03-26T06:07:33.881Z,100.00
2023-03-26T06:10:18.739Z,100.00
2023-03-26T06:12:49.634Z,100.00
2023-03-26T06:15:18.540Z,100.00
2023-03-26T06:17:59.049Z,100.00
2023-03-26T06:20:37.558Z,100.00
2023-03-26T06:23:12.389Z,100.00
2023-03-26T06:25:56.174Z,100.00
2023-03-26T06:28:59.780Z,100.00
2023-03-26T06:31:47.955Z,100.00
2023-03-26T06:34:27.050Z,100.00
2023-03-26T06:36:55.576Z,100.00
2023-03-26T06:39:24.280Z,100.00
2023-03-26T06:42:10.467Z,100.00
2023-03-26T06:45:09.674Z,100.00
2023-03-26T06:48:01.496Z,100.00
2023-03-26T06:51:09.941Z,100.00
2023-03-26T06:54:23.999Z,100.00
2023-03-26T06:56:58.970Z,100.00
2023-03-26T06:59:47.603Z,100.00
2023-03-26T07:02:34.476Z,100.00
2023-03-26T07:05:21.702Z,100.00
2023-03-26T07:08:30.819Z,100.00
2023-03-26T07:11:34.630Z,100.00
2023-03-26T07:14:21.613Z,100.00
2023-03-26T07:17:14.128Z,100.00
2023-03-26T07:19:54.641Z,100.00
2023-03-26T07:22:27.784Z,100.00
2023-03-26T07:25:10.614Z,100.00
2023-03-26T07:28:15.399Z,100.00
2023-03-26T07:31:08.553Z,100.00
2023-03-26T07:33:54.856Z,100.00
2023-03-26T07:36:49.943Z,100.00
2023-03-26T07:39:47.697Z,100.00
2023-03-26T07:42:50.499Z,100.00
2023-03-26T07:45:41.585Z,100.00
2023-03-26T07:48:20.248Z,100.00
2023-03-26T07:51:20.061Z,100.00
2023-03-26T07:54:11.830Z,100.00
2023-03-26T07:56:46.906Z,100.00
2023-03-26T07:59:41.718Z,100.00
2023-03-26T08:03:03.423Z,100.00
2023-03-26T08:06:06.711Z,100.00
2023-03-26T08:08:53.592Z,100.00
2023-03-26T08:11:54.419Z,100.00
2023-03-26T08:14:35.442Z,100.00
2023-03-26T08:17:11.682Z,100.00
2023-03-26T08:19:52.491Z,100.00
2023-03-26T08:22:27.352Z,100.00
2023-03-26T08:25:20.027Z,100.00
2023-03-26T08:28:10.647Z,100.00
2023-03-26T08:30:39.376Z,100.00
2023-03-26T08:33:17.836Z,100.00
2023-03-26T08:35:46.618Z,100.00
2023-03-26T08:38:19.160Z,100.00
2023-03-26T08:41:57.824Z,100.00
2023-03-26T08:45:23.664Z,100.00
2023-03-26T08:48:29.989Z,100.00
2023-03-26T08:51:27.846Z,100.00
2023-03-26T08:54:45.917Z,100.00
2023-03-26T08:57:39.476Z,100.00
2023-03-26T09:00:44.122Z,100.00
2023-03-26T09:03:31.474Z,100.00
2023-03-26T09:06:37.427Z,100.00
2023-03-26T09:09:45.074Z,100.00
2023-03-26T09:13:04.764Z,97.96
2023-03-26T09:16:27.837Z,98.86
2023-03-26T09:19:31.802Z,100.00
2023-03-26T09:22:46.023Z,100.00
2023-03-26T09:25:54.699Z,100.00
2023-03-26T09:29:04.139Z,100.00
2023-03-26T09:32:11.886Z,100.00
2023-03-26T09:35:04.548Z,100.00
2023-03-26T09:37:56.633Z,99.49
2023-03-26T09:40:38.715Z,98.85
2023-03-26T09:43:44.861Z,98.47
2023-03-26T09:46:30.492Z,98.43
2023-03-26T09:49:28.767Z,97.98
2023-03-26T09:52:42.544Z,97.58
2023-03-26T09:55:40.389Z,97.35
2023-03-26T09:58:58.005Z,97.25
2023-03-26T10:01:37.641Z,97.94
2023-03-26T10:04:40.300Z,98.03
2023-03-26T10:07:23.314Z,98.46
2023-03-26T10:09:58.526Z,98.53
2023-03-26T10:12:36.600Z,98.75
2023-03-26T10:15:19.892Z,98.59
2023-03-26T10:18:27.104Z,98.64
2023-03-26T10:21:03.637Z,98.44
2023-03-26T10:23:57.959Z,98.52
2023-03-26T10:27:08.946Z,98.67
2023-03-26T10:30:30.428Z,99.13
2023-03-26T10:33:12.729Z,99.21
2023-03-26T10:36:01.779Z,99.21
2023-03-26T10:38:53.468Z,99.31
2023-03-26T10:41:31.692Z,99.20
2023-03-26T10:44:49.869Z,98.78
2023-03-26T10:47:45.344Z,98.42
2023-03-26T10:50:36.871Z,97.82
2023-03-26T10:53:14.896Z,98.26
2023-03-26T10:55:46.852Z,98.14
2023-03-26T10:58:24.215Z,98.31
2023-03-26T11:00:58.948Z,97.65
2023-03-26T11:03:55.213Z,97.82
2023-03-26T11:06:33.671Z,97.64
2023-03-26T11:09:24.552Z,97.13
2023-03-26T11:12:00.536Z,97.32
2023-03-26T11:14:36.213Z,96.81
2023-03-26T11:17:40.780Z,95.53
2023-03-26T11:20:13.171Z,95.23
2023-03-26T11:23:00.391Z,95.46
2023-03-26T11:25:44.962Z,95.30
2023-03-26T11:28:35.046Z,94.60
2023-03-26T11:31:11.871Z,94.84
2023-03-26T11:33:46.681Z,94.67
2023-03-26T11:36:20.950Z,94.42
2023-03-26T11:38:52.272Z,94.09
2023-03-26T11:41:30.826Z,93.70
2023-03-26T11:44:17.890Z,93.00
2023-03-26T11:46:48.665Z,92.94
2023-03-26T11:49:21.611Z,92.33
2023-03-26T11:51:50.325Z,91.58
2023-03-26T11:54:21.073Z,91.32
2023-03-26T11:57:05.293Z,90.63
2023-03-26T11:59:53.232Z,90.59
2023-03-26T12:02:32.540Z,90.44
2023-03-26T12:05:18.113Z,89.57
2023-03-26T12:07:55.894Z,88.87
2023-03-26T12:10:34.840Z,89.05
2023-03-26T12:13:29.880Z,88.73
2023-03-26T12:16:00.102Z,88.73
2023-03-26T12:18:29.741Z,88.28
2023-03-26T12:21:08.967Z,88.36
2023-03-26T12:23:44.684Z,87.10
2023-03-26T12:26:18.549Z,86.82
2023-03-26T12:28:52.639Z,85.71
2023-03-26T12:31:21.194Z,85.76
2023-03-26T12:34:08.057Z,86.04
2023-03-26T12:36:36.685Z,85.47
2023-03-26T12:40:07.415Z,84.83
2023-03-26T12:44:48.006Z,84.45
2023-03-26T12:45:24.653Z,84.13
2023-03-26T12:48:03.463Z,83.87
2023-03-26T12:50:51.183Z,83.65
2023-03-26T12:53:49.323Z,82.64
2023-03-26T12:56:22.243Z,82.08
2023-03-26T12:59:11.654Z,80.55
2023-03-26T13:01:53.709Z,79.88
2023-03-26T13:05:05.773Z,79.87
2023-03-26T13:07:54.762Z,79.52
2023-03-26T13:10:46.377Z,78.70
2023-03-26T13:13:57.476Z,77.80
2023-03-26T13:16:33.372Z,76.99
2023-03-26T13:19:10.507Z,77.16
2023-03-26T13:21:53.730Z,77.19
2023-03-26T13:24:34.785Z,76.09
2023-03-26T13:27:21.725Z,76.35
2023-03-26T13:29:58.025Z,75.64
2023-03-26T13:32:38.740Z,75.09
2023-03-26T13:35:16.893Z,75.08
2023-03-26T13:37:54.631Z,73.46
2023-03-26T13:40:34.070Z,73.60
2023-03-26T13:43:30.937Z,72.74
2023-03-26T13:46:10.563Z,72.16
2023-03-26T13:48:44.747Z,72.04
2023-03-26T13:51:19.496Z,71.54
2023-03-26T13:53:56.089Z,71.26
2023-03-26T13:56:30.791Z,71.16
2023-03-26T13:59:03.330Z,70.79
2023-03-26T14:01:36.248Z,69.51
2023-03-26T14:04:17.891Z,69.30
2023-03-26T14:06:57.199Z,68.80
2023-03-26T14:09:32.912Z,68.58
2023-03-26T14:12:23.882Z,68.89
2023-03-26T14:14:56.904Z,67.93
2023-03-26T14:17:30.014Z,68.19
2023-03-26T14:20:44.028Z,68.03
2023-03-26T14:23:55.463Z,66.58
2023-03-26T14:26:47.333Z,67.00
2023-03-26T14:29:31.427Z,66.42
2023-03-26T14:32:30.684Z,66.06
2023-03-26T14:35:26.031Z,65.75
2023-03-26T14:38:33.621Z,65.49
2023-03-26T14:41:23.247Z,64.94
2023-03-26T14:44:48.799Z,64.97
2023-03-26T14:47:20.533Z,64.84
2023-03-26T14:50:46.674Z,63.79
2023-03-26T14:53:29.511Z,64.14
2023-03-26T14:56:55.162Z,63.49
2023-03-26T15:00:26.686Z,63.93
2023-03-26T15:03:54.941Z,63.01
2023-03-26T15:07:32.268Z,63.39
2023-03-26T15:10:23.889Z,62.36
2023-03-26T15:13:11.116Z,62.31
2023-03-26T15:16:19.474Z,61.39
2023-03-26T15:19:53.059Z,61.85
2023-03-26T15:23:05.780Z,61.23
2023-03-26T15:26:43.343Z,61.90
2023-03-26T15:30:01.731Z,61.59
2023-03-26T15:33:43.798Z,62.02
2023-03-26T15:37:06.109Z,61.03
2023-03-26T15:39:59.830Z,61.24
2023-03-26T15:42:41.780Z,61.59
2023-03-26T15:45:36.935Z,61.08
2023-03-26T15:48:31.959Z,60.97
2023-03-26T15:51:15.952Z,61.13
2023-03-26T15:53:54.033Z,60.91
2023-03-26T15:56:35.653Z,61.04
2023-03-26T15:59:19.808Z,61.20
2023-03-26T16:02:02.928Z,60.60
2023-03-26T16:04:50.338Z,60.03
2023-03-26T16:07:50.616Z,59.86
2023-03-26T16:10:29.137Z,60.00
2023-03-26T16:13:31.933Z,59.40
2023-03-26T16:16:24.203Z,57.86
2023-03-26T16:18:59.543Z,58.09
2023-03-26T16:21:57.664Z,57.72
2023-03-26T16:24:31.983Z,57.74
2023-03-26T16:27:32.424Z,57.33
2023-03-26T16:30:32.791Z,56.81
2023-03-26T16:33:15.646Z,56.28
2023-03-26T16:36:07.439Z,56.02
2023-03-26T16:38:54.289Z,55.60
2023-03-26T16:41:27.659Z,55.38
2023-03-26T16:44:13.767Z,55.68
2023-03-26T16:46:57.768Z,56.33
2023-03-26T16:49:46.552Z,57.04
2023-03-26T16:52:45.691Z,57.19
2023-03-26T16:55:24.168Z,57.59
2023-03-26T16:57:58.972Z,57.70
2023-03-26T17:00:49.099Z,58.22
2023-03-26T17:03:29.132Z,58.60
2023-03-26T17:06:29.916Z,58.51
2023-03-26T17:09:10.649Z,57.80
2023-03-26T17:11:56.491Z,56.77
2023-03-26T17:14:42.342Z,56.93
2023-03-26T17:17:32.651Z,56.00
2023-03-26T17:20:12.684Z,55.70
2023-03-26T17:22:47.465Z,56.23
2023-03-26T17:25:41.433Z,55.71
2023-03-26T17:28:35.321Z,55.98
2023-03-26T17:31:06.711Z,55.85
2023-03-26T17:33:38.659Z,56.05
2023-03-26T17:36:30.966Z,56.10
2023-03-26T17:40:12.174Z,55.45
2023-03-26T17:43:03.881Z,55.86
2023-03-26T17:45:37.326Z,55.56
2023-03-26T17:48:15.485Z,55.33
2023-03-26T17:50:53.157Z,54.84
2023-03-26T17:53:28.098Z,55.01
2023-03-26T17:56:03.641Z,56.24
2023-03-26T17:58:37.537Z,57.80
2023-03-26T18:01:18.611Z,58.65
2023-03-26T18:03:50.546Z,59.04
2023-03-26T18:06:35.907Z,58.06
2023-03-26T18:09:18.755Z,57.81
2023-03-26T18:12:33.040Z,57.34
2023-03-26T18:15:31.538Z,57.70
2023-03-26T18:18:11.169Z,57.83
2023-03-26T18:20:42.623Z,57.92
2023-03-26T18:23:18.350Z,58.40
2023-03-26T18:25:58.201Z,58.77
2023-03-26T18:28:42.482Z,58.97
2023-03-26T18:31:19.556Z,58.28
2023-03-26T18:33:50.401Z,58.11
2023-03-26T18:36:19.651Z,58.62
2023-03-26T18:38:48.947Z,57.78
2023-03-26T18:41:32.210Z,57.44
2023-03-26T18:44:06.446Z,57.28
2023-03-26T18:46:35.865Z,57.50
2023-03-26T18:49:04.918Z,57.39
2023-03-26T18:51:43.268Z,57.63
2023-03-26T18:54:21.447Z,57.62
2023-03-26T18:56:52.163Z,57.88
2023-03-26T18:59:29.090Z,57.08
2023-03-26T19:01:59.122Z,57.68
2023-03-26T19:04:31.247Z,57.18
2023-03-26T19:07:00.444Z,57.04
2023-03-26T19:09:32.453Z,57.15
2023-03-26T19:12:07.821Z,57.27
2023-03-26T19:14:55.006Z,57.76
2023-03-26T19:17:25.442Z,57.16
2023-03-26T19:19:55.626Z,57.30
2023-03-26T19:22:26.824Z,56.41
2023-03-26T19:24:59.590Z,56.78
2023-03-26T19:27:28.721Z,56.54
2023-03-26T19:29:59.178Z,57.43
2023-03-26T19:32:34.525Z,56.96
2023-03-26T19:35:04.450Z,56.70
2023-03-26T19:37:33.531Z,56.48
2023-03-26T19:40:14.182Z,56.65
2023-03-26T19:42:45.943Z,56.52
2023-03-26T19:45:20.652Z,56.05
2023-03-26T19:48:00.501Z,56.04
2023-03-26T19:50:42.125Z,55.58
2023-03-26T19:53:25.494Z,55.73
2023-03-26T19:55:56.526Z,55.18
2023-03-26T19:58:28.471Z,55.56
2023-03-26T20:00:58.855Z,55.71
2023-03-26T20:03:30.162Z,55.52
2023-03-26T20:05:58.827Z,54.92
2023-03-26T20:08:27.948Z,55.35
2023-03-26T20:10:59.004Z,54.36
2023-03-26T20:13:27.945Z,54.86
2023-03-26T20:18:52.864Z,55.49
2023-03-26T20:21:21.420Z,55.12
2023-03-26T20:23:53.454Z,55.11
2023-03-26T20:26:24.119Z,55.54
2023-03-26T20:28:53.471Z,56.09
2023-03-26T20:31:26.664Z,56.25
2023-03-26T20:33:56.458Z,55.87
2023-03-26T20:36:33.881Z,56.59
2023-03-26T20:39:06.021Z,57.07
2023-03-26T20:41:35.359Z,56.89
2023-03-26T20:44:05.793Z,56.58
2023-03-26T20:46:35.608Z,57.24
2023-03-26T20:49:04.033Z,57.16
2023-03-26T20:51:32.341Z,57.10
2023-03-26T20:54:00.826Z,57.47
2023-03-26T20:56:29.263Z,57.79
2023-03-26T21:01:30.340Z,57.97
2023-03-26T21:04:00.708Z,58.11
2023-03-26T21:06:29.395Z,58.21
2023-03-26T21:08:58.726Z,58.44
2023-03-26T21:11:40.928Z,58.70
2023-03-26T21:14:17.043Z,58.73
2023-03-26T21:16:46.121Z,59.04
2023-03-26T21:19:16.884Z,59.54
2023-03-26T21:21:53.136Z,59.90
2023-03-26T21:24:39.184Z,60.02
2023-03-26T21:27:16.034Z,60.49
2023-03-26T21:29:45.204Z,60.44
2023-03-26T21:32:14.770Z,60.91
2023-03-26T21:34:55.735Z,60.70
2023-03-26T21:37:27.740Z,60.39
2023-03-26T21:39:56.745Z,59.83
2023-03-26T21:42:26.819Z,59.98
2023-03-26T21:44:56.161Z,60.25
2023-03-26T21:47:25.437Z,60.03
2023-03-26T21:49:56.063Z,60.00
2023-03-26T21:52:25.262Z,60.44
2023-03-26T21:54:54.649Z,60.52
2023-03-26T21:57:39.868Z,62.61
2023-03-26T22:00:15.362Z,63.57
2023-03-26T22:02:58.923Z,64.03
2023-03-26T22:05:39.059Z,64.30
2023-03-26T22:08:09.159Z,64.61
2023-03-26T22:10:37.692Z,64.89
2023-03-26T22:13:05.999Z,64.85
2023-03-26T22:15:35.437Z,64.99
2023-03-26T22:18:05.151Z,65.18
2023-03-26T22:20:34.822Z,64.61
2023-03-26T22:23:03.295Z,64.50
2023-03-26T22:25:31.632Z,64.24
2023-03-26T22:27:59.946Z,63.63
2023-03-26T22:30:28.308Z,63.58
2023-03-26T22:32:56.881Z,62.94
2023-03-26T22:35:26.314Z,63.32
2023-03-26T22:38:00.836Z,64.28
2023-03-26T22:40:29.704Z,64.38
2023-03-26T22:42:58.278Z,65.08
2023-03-26T22:45:27.929Z,65.01
2023-03-26T22:48:03.221Z,65.82
2023-03-26T22:50:33.080Z,66.14
2023-03-26T22:53:02.842Z,65.85
2023-03-26T22:55:31.112Z,66.34
2023-03-26T22:57:59.426Z,65.91
2023-03-26T23:00:27.874Z,65.80
2023-03-26T23:03:00.172Z,66.22
2023-03-26T23:05:29.344Z,65.63
2023-03-26T23:07:58.298Z,64.56
2023-03-26T23:10:30.123Z,63.53
2023-03-26T23:12:58.624Z,63.36
2023-03-26T23:15:27.032Z,63.31
2023-03-26T23:17:55.701Z,62.66
2023-03-26T23:20:24.144Z,62.42
2023-03-26T23:22:52.546Z,62.78
2023-03-26T23:25:21.248Z,62.84
2023-03-26T23:27:50.993Z,62.43
2023-03-26T23:30:19.575Z,62.68
2023-03-26T23:32:48.013Z,62.80
2023-03-26T23:35:16.759Z,62.03
2023-03-26T23:37:45.097Z,62.56
2023-03-26T23:40:14.359Z,62.06
2023-03-26T23:42:42.696Z,61.88
2023-03-26T23:45:13.386Z,62.65
2023-03-26T23:47:42.432Z,62.47
2023-03-26T23:50:12.864Z,62.17
2023-03-26T23:52:41.365Z,62.82
2023-03-26T23:55:10.611Z,63.81
2023-03-26T23:57:38.982Z,64.88
